sensor_id;sensor_type;location;lat;lon;timestamp;temperature;humidity
1455;DHT22;721;48.168;12.818;2024-02-21T00:01:23;5.70;7.80
1455;DHT22;721;48.168;12.818;2024-02-21T00:03:50;5.70;7.80
1455;DHT22;721;48.168;12.818;2024-02-21T00:06:16;5.70;7.10
1455;DHT22;721;48.168;12.818;2024-02-21T00:08:44;5.80;6.10
1455;DHT22;721;48.168;12.818;2024-02-21T00:11:11;5.70;6.80
1455;DHT22;721;48.168;12.818;2024-02-21T00:13:38;5.60;7.60
1455;DHT22;721;48.168;12.818;2024-02-21T00:16:05;5.90;7.70
1455;DHT22;721;48.168;12.818;2024-02-21T00:18:32;5.60;7.40
1455;DHT22;721;48.168;12.818;2024-02-21T00:20:59;5.60;8.00
1455;DHT22;721;48.168;12.818;2024-02-21T00:23:27;5.40;7.50
1455;DHT22;721;48.168;12.818;2024-02-21T00:25:56;5.30;7.40
1455;DHT22;721;48.168;12.818;2024-02-21T00:28:22;5.30;7.60
1455;DHT22;721;48.168;12.818;2024-02-21T00:30:49;5.30;8.10
1455;DHT22;721;48.168;12.818;2024-02-21T00:33:18;5.30;8.10
1455;DHT22;721;48.168;12.818;2024-02-21T00:35:45;5.70;8.30
1455;DHT22;721;48.168;12.818;2024-02-21T00:38:12;5.90;8.50
1455;DHT22;721;48.168;12.818;2024-02-21T00:40:39;5.30;8.40
1455;DHT22;721;48.168;12.818;2024-02-21T00:43:07;5.30;8.90
1455;DHT22;721;48.168;12.818;2024-02-21T00:45:34;5.30;8.10
1455;DHT22;721;48.168;12.818;2024-02-21T00:48:01;5.20;9.00
1455;DHT22;721;48.168;12.818;2024-02-21T00:50:27;5.50;9.70
1455;DHT22;721;48.168;12.818;2024-02-21T00:52:54;5.40;9.60
1455;DHT22;721;48.168;12.818;2024-02-21T00:55:21;5.20;9.60
1455;DHT22;721;48.168;12.818;2024-02-21T00:57:48;5.20;9.30
1455;DHT22;721;48.168;12.818;2024-02-21T01:00:17;5.10;9.90
1455;DHT22;721;48.168;12.818;2024-02-21T01:02:44;5.10;9.80
1455;DHT22;721;48.168;12.818;2024-02-21T01:05:11;5.20;10.20
1455;DHT22;721;48.168;12.818;2024-02-21T01:07:38;5.20;9.50
1455;DHT22;721;48.168;12.818;2024-02-21T01:10:06;5.40;10.60
1455;DHT22;721;48.168;12.818;2024-02-21T01:12:33;5.40;11.10
1455;DHT22;721;48.168;12.818;2024-02-21T01:14:59;5.50;10.80
1455;DHT22;721;48.168;12.818;2024-02-21T01:17:28;5.50;8.90
1455;DHT22;721;48.168;12.818;2024-02-21T01:19:54;5.60;8.70
1455;DHT22;721;48.168;12.818;2024-02-21T01:22:21;5.60;8.50
1455;DHT22;721;48.168;12.818;2024-02-21T01:24:48;6.00;8.60
1455;DHT22;721;48.168;12.818;2024-02-21T01:27:15;5.80;7.80
1455;DHT22;721;48.168;12.818;2024-02-21T01:29:42;5.90;7.20
1455;DHT22;721;48.168;12.818;2024-02-21T01:32:08;5.90;6.70
1455;DHT22;721;48.168;12.818;2024-02-21T01:34:37;5.80;6.60
1455;DHT22;721;48.168;12.818;2024-02-21T01:37:03;6.50;7.20
1455;DHT22;721;48.168;12.818;2024-02-21T01:39:32;5.80;6.60
1455;DHT22;721;48.168;12.818;2024-02-21T01:41:59;5.70;6.80
1455;DHT22;721;48.168;12.818;2024-02-21T01:44:26;6.00;7.80
1455;DHT22;721;48.168;12.818;2024-02-21T01:46:53;6.10;8.10
1455;DHT22;721;48.168;12.818;2024-02-21T01:49:20;5.50;8.20
1455;DHT22;721;48.168;12.818;2024-02-21T01:51:49;5.50;8.20
1455;DHT22;721;48.168;12.818;2024-02-21T01:54:17;5.40;9.00
1455;DHT22;721;48.168;12.818;2024-02-21T01:56:46;5.70;9.00
1455;DHT22;721;48.168;12.818;2024-02-21T01:59:13;5.60;9.40
1455;DHT22;721;48.168;12.818;2024-02-21T02:01:41;5.50;8.20
1455;DHT22;721;48.168;12.818;2024-02-21T02:04:09;5.70;8.40
1455;DHT22;721;48.168;12.818;2024-02-21T02:06:36;5.50;8.20
1455;DHT22;721;48.168;12.818;2024-02-21T02:09:04;5.40;7.70
1455;DHT22;721;48.168;12.818;2024-02-21T02:11:32;5.80;8.50
1455;DHT22;721;48.168;12.818;2024-02-21T02:13:59;5.50;8.20
1455;DHT22;721;48.168;12.818;2024-02-21T02:16:25;5.40;8.20
1455;DHT22;721;48.168;12.818;2024-02-21T02:18:52;5.50;9.30
1455;DHT22;721;48.168;12.818;2024-02-21T02:21:26;5.50;10.90
1455;DHT22;721;48.168;12.818;2024-02-21T02:23:55;5.80;11.90
1455;DHT22;721;48.168;12.818;2024-02-21T02:26:21;5.30;11.60
1455;DHT22;721;48.168;12.818;2024-02-21T02:28:48;6.20;11.80
1455;DHT22;721;48.168;12.818;2024-02-21T02:31:15;5.40;10.80
1455;DHT22;721;48.168;12.818;2024-02-21T02:33:43;5.40;10.80
1455;DHT22;721;48.168;12.818;2024-02-21T02:36:10;5.70;11.10
1455;DHT22;721;48.168;12.818;2024-02-21T02:38:37;5.70;10.90
1455;DHT22;721;48.168;12.818;2024-02-21T02:41:05;5.50;9.70
1455;DHT22;721;48.168;12.818;2024-02-21T02:43:32;5.80;9.80
1455;DHT22;721;48.168;12.818;2024-02-21T02:45:59;5.50;10.00
1455;DHT22;721;48.168;12.818;2024-02-21T02:48:26;5.50;11.50
1455;DHT22;721;48.168;12.818;2024-02-21T02:50:53;5.50;10.40
1455;DHT22;721;48.168;12.818;2024-02-21T02:53:19;5.50;10.50
1455;DHT22;721;48.168;12.818;2024-02-21T02:55:46;5.40;10.90
1455;DHT22;721;48.168;12.818;2024-02-21T02:58:14;6.00;11.80
1455;DHT22;721;48.168;12.818;2024-02-21T03:00:41;6.20;12.30
1455;DHT22;721;48.168;12.818;2024-02-21T03:03:08;5.40;11.80
1455;DHT22;721;48.168;12.818;2024-02-21T03:05:35;5.70;11.80
1455;DHT22;721;48.168;12.818;2024-02-21T03:08:02;5.50;11.80
1455;DHT22;721;48.168;12.818;2024-02-21T03:10:32;5.30;12.10
1455;DHT22;721;48.168;12.818;2024-02-21T03:12:59;5.30;11.30
1455;DHT22;721;48.168;12.818;2024-02-21T03:15:27;5.30;11.20
1455;DHT22;721;48.168;12.818;2024-02-21T03:17:54;5.30;11.00
1455;DHT22;721;48.168;12.818;2024-02-21T03:20:21;5.30;11.00
1455;DHT22;721;48.168;12.818;2024-02-21T03:22:47;5.30;11.00
1455;DHT22;721;48.168;12.818;2024-02-21T03:25:14;5.30;11.00
1455;DHT22;721;48.168;12.818;2024-02-21T03:27:41;5.30;10.30
1455;DHT22;721;48.168;12.818;2024-02-21T03:30:09;5.30;10.40
1455;DHT22;721;48.168;12.818;2024-02-21T03:32:37;5.30;10.60
1455;DHT22;721;48.168;12.818;2024-02-21T03:35:05;5.40;10.30
1455;DHT22;721;48.168;12.818;2024-02-21T03:37:31;5.30;10.70
1455;DHT22;721;48.168;12.818;2024-02-21T03:39:58;5.40;10.40
1455;DHT22;721;48.168;12.818;2024-02-21T03:42:25;5.20;10.30
1455;DHT22;721;48.168;12.818;2024-02-21T03:44:55;5.30;10.30
1455;DHT22;721;48.168;12.818;2024-02-21T03:47:21;5.40;10.40
1455;DHT22;721;48.168;12.818;2024-02-21T03:49:50;5.70;10.30
1455;DHT22;721;48.168;12.818;2024-02-21T03:52:17;5.60;9.80
1455;DHT22;721;48.168;12.818;2024-02-21T03:54:43;5.90;10.10
1455;DHT22;721;48.168;12.818;2024-02-21T03:57:10;5.40;10.30
1455;DHT22;721;48.168;12.818;2024-02-21T03:59:37;5.40;10.50
1455;DHT22;721;48.168;12.818;2024-02-21T04:02:05;5.40;10.50
1455;DHT22;721;48.168;12.818;2024-02-21T04:04:34;5.40;10.50
1455;DHT22;721;48.168;12.818;2024-02-21T04:07:02;5.70;10.80
1455;DHT22;721;48.168;12.818;2024-02-21T04:09:32;5.30;10.80
1455;DHT22;721;48.168;12.818;2024-02-21T04:11:59;5.30;11.20
1455;DHT22;721;48.168;12.818;2024-02-21T04:14:26;5.50;11.30
1455;DHT22;721;48.168;12.818;2024-02-21T04:16:53;5.30;11.40
1455;DHT22;721;48.168;12.818;2024-02-21T04:19:20;5.70;11.70
1455;DHT22;721;48.168;12.818;2024-02-21T04:21:47;5.30;11.60
1455;DHT22;721;48.168;12.818;2024-02-21T04:24:15;5.70;11.70
1455;DHT22;721;48.168;12.818;2024-02-21T04:26:42;5.60;11.90
1455;DHT22;721;48.168;12.818;2024-02-21T04:29:11;6.20;12.40
1455;DHT22;721;48.168;12.818;2024-02-21T04:31:38;5.40;12.10
1455;DHT22;721;48.168;12.818;2024-02-21T04:34:06;5.30;12.70
1455;DHT22;721;48.168;12.818;2024-02-21T04:36:33;5.20;12.20
1455;DHT22;721;48.168;12.818;2024-02-21T04:39:00;5.20;13.00
1455;DHT22;721;48.168;12.818;2024-02-21T04:41:28;5.60;13.00
1455;DHT22;721;48.168;12.818;2024-02-21T04:43:55;5.70;12.70
1455;DHT22;721;48.168;12.818;2024-02-21T04:46:21;5.30;12.40
1455;DHT22;721;48.168;12.818;2024-02-21T04:48:48;5.30;12.60
1455;DHT22;721;48.168;12.818;2024-02-21T04:51:15;5.70;12.60
1455;DHT22;721;48.168;12.818;2024-02-21T04:53:42;5.80;12.60
1455;DHT22;721;48.168;12.818;2024-02-21T04:56:08;5.30;12.60
1455;DHT22;721;48.168;12.818;2024-02-21T04:58:39;5.30;12.20
1455;DHT22;721;48.168;12.818;2024-02-21T05:01:05;6.00;12.70
1455;DHT22;721;48.168;12.818;2024-02-21T05:03:33;5.50;12.70
1455;DHT22;721;48.168;12.818;2024-02-21T05:06:00;5.30;12.20
1455;DHT22;721;48.168;12.818;2024-02-21T05:08:27;5.30;13.20
1455;DHT22;721;48.168;12.818;2024-02-21T05:10:53;5.30;13.30
1455;DHT22;721;48.168;12.818;2024-02-21T05:13:20;5.40;12.80
1455;DHT22;721;48.168;12.818;2024-02-21T05:15:49;5.60;13.10
1455;DHT22;721;48.168;12.818;2024-02-21T05:18:15;5.40;13.00
1455;DHT22;721;48.168;12.818;2024-02-21T05:20:42;5.80;12.60
1455;DHT22;721;48.168;12.818;2024-02-21T05:23:09;6.00;13.00
1455;DHT22;721;48.168;12.818;2024-02-21T05:25:36;5.50;12.60
1455;DHT22;721;48.168;12.818;2024-02-21T05:28:04;5.50;12.60
1455;DHT22;721;48.168;12.818;2024-02-21T05:30:31;5.60;12.20
1455;DHT22;721;48.168;12.818;2024-02-21T05:33:04;5.60;11.80
1455;DHT22;721;48.168;12.818;2024-02-21T05:35:31;5.60;11.00
1455;DHT22;721;48.168;12.818;2024-02-21T05:37:58;5.60;11.10
1455;DHT22;721;48.168;12.818;2024-02-21T05:40:25;5.70;11.20
1455;DHT22;721;48.168;12.818;2024-02-21T05:42:52;5.50;10.80
1455;DHT22;721;48.168;12.818;2024-02-21T05:45:19;5.50;10.90
1455;DHT22;721;48.168;12.818;2024-02-21T05:47:45;5.60;10.10
1455;DHT22;721;48.168;12.818;2024-02-21T05:50:14;6.30;10.40
1455;DHT22;721;48.168;12.818;2024-02-21T05:52:40;5.80;10.60
1455;DHT22;721;48.168;12.818;2024-02-21T05:55:08;6.30;10.90
1455;DHT22;721;48.168;12.818;2024-02-21T05:57:35;5.70;11.00
1455;DHT22;721;48.168;12.818;2024-02-21T06:00:04;6.20;11.60
1455;DHT22;721;48.168;12.818;2024-02-21T06:02:31;5.70;11.30
1455;DHT22;721;48.168;12.818;2024-02-21T06:04:58;5.60;11.00
1455;DHT22;721;48.168;12.818;2024-02-21T06:07:26;5.60;11.60
1455;DHT22;721;48.168;12.818;2024-02-21T06:09:53;5.70;10.80
1455;DHT22;721;48.168;12.818;2024-02-21T06:12:20;5.60;11.20
1455;DHT22;721;48.168;12.818;2024-02-21T06:14:47;5.50;12.00
1455;DHT22;721;48.168;12.818;2024-02-21T06:17:14;5.40;12.00
1455;DHT22;721;48.168;12.818;2024-02-21T06:19:42;5.30;13.10
1455;DHT22;721;48.168;12.818;2024-02-21T06:22:09;5.30;13.80
1455;DHT22;721;48.168;12.818;2024-02-21T06:24:37;5.30;13.10
1455;DHT22;721;48.168;12.818;2024-02-21T06:27:04;5.30;13.20
1455;DHT22;721;48.168;12.818;2024-02-21T06:29:32;5.60;13.50
1455;DHT22;721;48.168;12.818;2024-02-21T06:31:59;5.30;13.10
1455;DHT22;721;48.168;12.818;2024-02-21T06:34:26;5.30;12.80
1455;DHT22;721;48.168;12.818;2024-02-21T06:36:53;5.30;12.90
1455;DHT22;721;48.168;12.818;2024-02-21T06:39:20;5.30;13.20
1455;DHT22;721;48.168;12.818;2024-02-21T06:41:50;5.40;12.60
1455;DHT22;721;48.168;12.818;2024-02-21T06:44:18;5.40;13.50
1455;DHT22;721;48.168;12.818;2024-02-21T06:46:45;5.30;13.70
1455;DHT22;721;48.168;12.818;2024-02-21T06:49:12;5.60;14.40
1455;DHT22;721;48.168;12.818;2024-02-21T06:51:41;5.20;14.80
1455;DHT22;721;48.168;12.818;2024-02-21T06:54:08;5.10;14.60
1455;DHT22;721;48.168;12.818;2024-02-21T06:56:35;5.50;15.90
1455;DHT22;721;48.168;12.818;2024-02-21T06:59:03;5.00;16.10
1455;DHT22;721;48.168;12.818;2024-02-21T07:01:30;5.00;16.10
1455;DHT22;721;48.168;12.818;2024-02-21T07:03:57;5.10;16.10
1455;DHT22;721;48.168;12.818;2024-02-21T07:06:24;5.10;16.10
1455;DHT22;721;48.168;12.818;2024-02-21T07:08:51;5.20;16.20
1455;DHT22;721;48.168;12.818;2024-02-21T07:11:18;5.20;16.30
1455;DHT22;721;48.168;12.818;2024-02-21T07:13:45;5.30;15.40
1455;DHT22;721;48.168;12.818;2024-02-21T07:16:13;6.10;15.50
1455;DHT22;721;48.168;12.818;2024-02-21T07:18:40;5.50;14.20
1455;DHT22;721;48.168;12.818;2024-02-21T07:21:06;5.90;14.30
1455;DHT22;721;48.168;12.818;2024-02-21T07:23:33;5.60;13.30
1455;DHT22;721;48.168;12.818;2024-02-21T07:26:00;5.70;12.70
1455;DHT22;721;48.168;12.818;2024-02-21T07:28:27;5.80;12.10
1455;DHT22;721;48.168;12.818;2024-02-21T07:30:54;6.00;12.20
1455;DHT22;721;48.168;12.818;2024-02-21T07:33:22;5.90;11.80
1455;DHT22;721;48.168;12.818;2024-02-21T07:35:49;5.60;11.40
1455;DHT22;721;48.168;12.818;2024-02-21T07:38:15;6.00;11.50
1455;DHT22;721;48.168;12.818;2024-02-21T07:40:44;6.00;11.50
1455;DHT22;721;48.168;12.818;2024-02-21T07:43:11;6.00;10.20
1455;DHT22;721;48.168;12.818;2024-02-21T07:45:38;6.20;9.60
1455;DHT22;721;48.168;12.818;2024-02-21T07:48:05;6.10;9.50
1455;DHT22;721;48.168;12.818;2024-02-21T07:50:34;6.00;9.50
1455;DHT22;721;48.168;12.818;2024-02-21T07:53:00;6.00;10.30
1455;DHT22;721;48.168;12.818;2024-02-21T07:55:27;6.10;10.30
1455;DHT22;721;48.168;12.818;2024-02-21T07:57:54;6.10;9.90
1455;DHT22;721;48.168;12.818;2024-02-21T08:00:21;6.10;9.40
1455;DHT22;721;48.168;12.818;2024-02-21T08:02:49;6.20;10.20
1455;DHT22;721;48.168;12.818;2024-02-21T08:05:15;6.40;9.60
1455;DHT22;721;48.168;12.818;2024-02-21T08:07:44;6.30;9.40
1455;DHT22;721;48.168;12.818;2024-02-21T08:10:10;6.30;8.80
1455;DHT22;721;48.168;12.818;2024-02-21T08:12:38;6.90;9.20
1455;DHT22;721;48.168;12.818;2024-02-21T08:15:05;6.50;8.70
1455;DHT22;721;48.168;12.818;2024-02-21T08:17:33;6.60;8.00
1455;DHT22;721;48.168;12.818;2024-02-21T08:20:00;6.70;6.10
1455;DHT22;721;48.168;12.818;2024-02-21T08:22:27;7.00;6.60
1455;DHT22;721;48.168;12.818;2024-02-21T08:24:56;6.90;6.80
1455;DHT22;721;48.168;12.818;2024-02-21T08:27:22;7.00;5.50
1455;DHT22;721;48.168;12.818;2024-02-21T08:29:49;7.00;4.50
1455;DHT22;721;48.168;12.818;2024-02-21T08:32:16;7.20;3.90
1455;DHT22;721;48.168;12.818;2024-02-21T08:34:43;7.20;2.70
1455;DHT22;721;48.168;12.818;2024-02-21T08:37:10;7.90;4.60
1455;DHT22;721;48.168;12.818;2024-02-21T08:39:37;7.40;1.10
1455;DHT22;721;48.168;12.818;2024-02-21T08:42:06;7.40;1.10
1455;DHT22;721;48.168;12.818;2024-02-21T08:44:32;7.40;1.10
1455;DHT22;721;48.168;12.818;2024-02-21T08:46:59;7.50;1.20
1455;DHT22;721;48.168;12.818;2024-02-21T08:49:29;7.60;1.00
1455;DHT22;721;48.168;12.818;2024-02-21T08:51:56;7.80;1.00
1455;DHT22;721;48.168;12.818;2024-02-21T08:54:23;7.70;1.00
1455;DHT22;721;48.168;12.818;2024-02-21T08:56:50;8.10;1.00
1455;DHT22;721;48.168;12.818;2024-02-21T08:59:18;8.00;1.00
1455;DHT22;721;48.168;12.818;2024-02-21T09:01:44;8.20;1.00
1455;DHT22;721;48.168;12.818;2024-02-21T09:04:11;8.10;1.00
1455;DHT22;721;48.168;12.818;2024-02-21T09:06:38;8.20;1.00
1455;DHT22;721;48.168;12.818;2024-02-21T09:09:08;8.10;1.00
1455;DHT22;721;48.168;12.818;2024-02-21T09:11:35;8.20;1.00
1455;DHT22;721;48.168;12.818;2024-02-21T09:14:02;8.20;1.00
1455;DHT22;721;48.168;12.818;2024-02-21T09:16:31;8.20;1.00
1455;DHT22;721;48.168;12.818;2024-02-21T09:18:58;8.40;1.00
1455;DHT22;721;48.168;12.818;2024-02-21T09:21:26;8.60;1.00
1455;DHT22;721;48.168;12.818;2024-02-21T09:23:53;8.50;1.00
1455;DHT22;721;48.168;12.818;2024-02-21T09:26:20;8.40;1.00
1455;DHT22;721;48.168;12.818;2024-02-21T09:28:47;8.50;1.00
1455;DHT22;721;48.168;12.818;2024-02-21T09:31:14;8.80;1.00
1455;DHT22;721;48.168;12.818;2024-02-21T09:33:42;8.50;1.00
1455;DHT22;721;48.168;12.818;2024-02-21T09:36:08;8.80;1.00
1455;DHT22;721;48.168;12.818;2024-02-21T09:38:36;8.80;1.00
1455;DHT22;721;48.168;12.818;2024-02-21T09:41:11;8.70;1.00
1455;DHT22;721;48.168;12.818;2024-02-21T09:43:41;8.60;1.00
1455;DHT22;721;48.168;12.818;2024-02-21T09:46:14;8.70;1.00
1455;DHT22;721;48.168;12.818;2024-02-21T09:48:57;9.00;1.00
1455;DHT22;721;48.168;12.818;2024-02-21T09:51:28;8.90;1.00
1455;DHT22;721;48.168;12.818;2024-02-21T09:53:57;9.30;1.00
1455;DHT22;721;48.168;12.818;2024-02-21T09:56:24;8.80;1.00
1455;DHT22;721;48.168;12.818;2024-02-21T09:58:51;8.90;1.00
1455;DHT22;721;48.168;12.818;2024-02-21T10:01:18;8.90;1.00
1455;DHT22;721;48.168;12.818;2024-02-21T10:03:46;8.90;1.00
1455;DHT22;721;48.168;12.818;2024-02-21T10:06:13;8.90;1.00
1455;DHT22;721;48.168;12.818;2024-02-21T10:08:40;8.90;1.00
1455;DHT22;721;48.168;12.818;2024-02-21T10:11:07;8.90;1.00
1455;DHT22;721;48.168;12.818;2024-02-21T10:13:35;8.90;1.00
1455;DHT22;721;48.168;12.818;2024-02-21T10:16:04;9.00;1.00
1455;DHT22;721;48.168;12.818;2024-02-21T10:18:32;9.00;1.00
1455;DHT22;721;48.168;12.818;2024-02-21T10:21:07;9.00;1.00
1455;DHT22;721;48.168;12.818;2024-02-21T10:23:44;9.00;1.00
1455;DHT22;721;48.168;12.818;2024-02-21T10:26:11;9.10;1.00
1455;DHT22;721;48.168;12.818;2024-02-21T10:28:38;9.20;1.00
1455;DHT22;721;48.168;12.818;2024-02-21T10:31:08;9.20;1.00
1455;DHT22;721;48.168;12.818;2024-02-21T10:33:35;9.30;1.00
1455;DHT22;721;48.168;12.818;2024-02-21T10:36:08;9.40;1.00
1455;DHT22;721;48.168;12.818;2024-02-21T10:38:36;9.60;1.00
1455;DHT22;721;48.168;12.818;2024-02-21T10:41:04;9.60;1.00
1455;DHT22;721;48.168;12.818;2024-02-21T10:43:37;10.00;1.00
1455;DHT22;721;48.168;12.818;2024-02-21T10:46:05;10.10;1.00
1455;DHT22;721;48.168;12.818;2024-02-21T10:48:41;9.80;1.00
1455;DHT22;721;48.168;12.818;2024-02-21T10:51:14;9.90;1.00
1455;DHT22;721;48.168;12.818;2024-02-21T10:53:44;10.00;1.00
1455;DHT22;721;48.168;12.818;2024-02-21T10:56:21;10.10;1.00
1455;DHT22;721;48.168;12.818;2024-02-21T10:58:49;10.20;1.00
1455;DHT22;721;48.168;12.818;2024-02-21T11:01:17;10.20;1.00
1455;DHT22;721;48.168;12.818;2024-02-21T11:03:46;10.30;1.00
1455;DHT22;721;48.168;12.818;2024-02-21T11:06:16;10.30;1.00
1455;DHT22;721;48.168;12.818;2024-02-21T11:08:44;10.50;1.00
1455;DHT22;721;48.168;12.818;2024-02-21T11:11:12;10.60;1.00
1455;DHT22;721;48.168;12.818;2024-02-21T11:13:43;10.80;1.00
1455;DHT22;721;48.168;12.818;2024-02-21T11:16:12;10.70;1.00
1455;DHT22;721;48.168;12.818;2024-02-21T11:18:47;10.80;1.00
1455;DHT22;721;48.168;12.818;2024-02-21T11:21:16;10.90;1.00
1455;DHT22;721;48.168;12.818;2024-02-21T11:23:43;11.00;1.00
1455;DHT22;721;48.168;12.818;2024-02-21T11:26:10;11.00;1.00
1455;DHT22;721;48.168;12.818;2024-02-21T11:28:44;11.30;1.00
1455;DHT22;721;48.168;12.818;2024-02-21T11:31:12;11.40;1.00
1455;DHT22;721;48.168;12.818;2024-02-21T11:33:40;11.50;1.00
1455;DHT22;721;48.168;12.818;2024-02-21T11:36:08;11.80;1.00
1455;DHT22;721;48.168;12.818;2024-02-21T11:38:36;11.90;1.00
1455;DHT22;721;48.168;12.818;2024-02-21T11:41:08;12.00;1.00
1455;DHT22;721;48.168;12.818;2024-02-21T11:43:34;12.20;1.00
1455;DHT22;721;48.168;12.818;2024-02-21T11:46:02;12.20;1.00
1455;DHT22;721;48.168;12.818;2024-02-21T11:48:31;12.10;1.00
1455;DHT22;721;48.168;12.818;2024-02-21T11:50:58;12.20;1.00
1455;DHT22;721;48.168;12.818;2024-02-21T11:53:26;12.30;1.00
1455;DHT22;721;48.168;12.818;2024-02-21T11:55:57;12.70;1.00
1455;DHT22;721;48.168;12.818;2024-02-21T11:58:24;12.80;1.00
1455;DHT22;721;48.168;12.818;2024-02-21T12:00:52;12.70;1.00
1455;DHT22;721;48.168;12.818;2024-02-21T12:03:19;12.80;1.00
1455;DHT22;721;48.168;12.818;2024-02-21T12:05:46;12.90;1.00
1455;DHT22;721;48.168;12.818;2024-02-21T12:08:13;13.00;1.00
1455;DHT22;721;48.168;12.818;2024-02-21T12:10:42;13.00;1.00
1455;DHT22;721;48.168;12.818;2024-02-21T12:13:11;13.10;1.00
1455;DHT22;721;48.168;12.818;2024-02-21T12:15:38;13.30;1.00
1455;DHT22;721;48.168;12.818;2024-02-21T12:18:05;13.30;1.00
1455;DHT22;721;48.168;12.818;2024-02-21T12:20:32;13.40;1.00
1455;DHT22;721;48.168;12.818;2024-02-21T12:23:01;13.50;1.00
1455;DHT22;721;48.168;12.818;2024-02-21T12:25:28;13.70;1.00
1455;DHT22;721;48.168;12.818;2024-02-21T12:27:55;13.80;1.00
1455;DHT22;721;48.168;12.818;2024-02-21T12:30:23;14.20;1.00
1455;DHT22;721;48.168;12.818;2024-02-21T12:32:50;14.00;1.00
1455;DHT22;721;48.168;12.818;2024-02-21T12:35:17;14.00;1.00
1455;DHT22;721;48.168;12.818;2024-02-21T12:37:44;14.10;1.00
1455;DHT22;721;48.168;12.818;2024-02-21T12:40:11;14.30;1.00
1455;DHT22;721;48.168;12.818;2024-02-21T12:42:39;14.50;1.00
1455;DHT22;721;48.168;12.818;2024-02-21T12:45:06;14.50;1.00
1455;DHT22;721;48.168;12.818;2024-02-21T12:47:34;14.50;1.00
1455;DHT22;721;48.168;12.818;2024-02-21T12:50:02;14.60;1.00
1455;DHT22;721;48.168;12.818;2024-02-21T12:52:32;14.50;1.00
1455;DHT22;721;48.168;12.818;2024-02-21T12:54:58;14.60;1.00
1455;DHT22;721;48.168;12.818;2024-02-21T12:57:25;14.70;1.00
1455;DHT22;721;48.168;12.818;2024-02-21T12:59:52;14.80;1.00
1455;DHT22;721;48.168;12.818;2024-02-21T13:02:19;14.90;1.00
1455;DHT22;721;48.168;12.818;2024-02-21T13:04:48;14.90;1.00
1455;DHT22;721;48.168;12.818;2024-02-21T13:07:14;15.00;1.00
1455;DHT22;721;48.168;12.818;2024-02-21T13:09:41;15.20;1.00
1455;DHT22;721;48.168;12.818;2024-02-21T13:12:08;15.60;1.00
1455;DHT22;721;48.168;12.818;2024-02-21T13:14:35;15.20;1.00
1455;DHT22;721;48.168;12.818;2024-02-21T13:17:04;15.40;1.00
1455;DHT22;721;48.168;12.818;2024-02-21T13:19:31;15.50;1.00
1455;DHT22;721;48.168;12.818;2024-02-21T13:21:59;15.60;1.00
1455;DHT22;721;48.168;12.818;2024-02-21T13:24:27;15.50;1.00
1455;DHT22;721;48.168;12.818;2024-02-21T13:26:54;15.80;1.00
1455;DHT22;721;48.168;12.818;2024-02-21T13:29:21;15.60;1.00
1455;DHT22;721;48.168;12.818;2024-02-21T13:31:48;15.60;1.00
1455;DHT22;721;48.168;12.818;2024-02-21T13:34:15;15.90;1.00
1455;DHT22;721;48.168;12.818;2024-02-21T13:36:42;15.90;1.00
1455;DHT22;721;48.168;12.818;2024-02-21T13:39:10;15.90;1.00
1455;DHT22;721;48.168;12.818;2024-02-21T13:41:41;16.00;1.00
1455;DHT22;721;48.168;12.818;2024-02-21T13:44:08;16.20;1.00
1455;DHT22;721;48.168;12.818;2024-02-21T13:46:35;16.20;1.00
1455;DHT22;721;48.168;12.818;2024-02-21T13:49:04;16.30;1.00
1455;DHT22;721;48.168;12.818;2024-02-21T13:51:32;16.30;1.00
1455;DHT22;721;48.168;12.818;2024-02-21T13:54:01;16.10;1.00
1455;DHT22;721;48.168;12.818;2024-02-21T13:56:29;16.10;1.00
1455;DHT22;721;48.168;12.818;2024-02-21T13:58:57;15.80;1.00
1455;DHT22;721;48.168;12.818;2024-02-21T14:01:25;15.20;1.00
1455;DHT22;721;48.168;12.818;2024-02-21T14:03:53;15.20;1.00
1455;DHT22;721;48.168;12.818;2024-02-21T14:06:20;15.40;1.00
1455;DHT22;721;48.168;12.818;2024-02-21T14:08:46;15.60;1.00
1455;DHT22;721;48.168;12.818;2024-02-21T14:11:13;15.90;1.00
1455;DHT22;721;48.168;12.818;2024-02-21T14:13:42;16.00;1.00
1455;DHT22;721;48.168;12.818;2024-02-21T14:16:10;16.00;1.00
1455;DHT22;721;48.168;12.818;2024-02-21T14:18:38;16.00;1.00
1455;DHT22;721;48.168;12.818;2024-02-21T14:21:06;16.20;1.00
1455;DHT22;721;48.168;12.818;2024-02-21T14:23:33;16.50;1.00
1455;DHT22;721;48.168;12.818;2024-02-21T14:26:00;16.30;1.00
1455;DHT22;721;48.168;12.818;2024-02-21T14:28:26;16.40;1.00
1455;DHT22;721;48.168;12.818;2024-02-21T14:30:55;16.10;1.00
1455;DHT22;721;48.168;12.818;2024-02-21T14:33:23;15.90;1.00
1455;DHT22;721;48.168;12.818;2024-02-21T14:35:50;16.20;1.00
1455;DHT22;721;48.168;12.818;2024-02-21T14:38:18;16.10;1.00
1455;DHT22;721;48.168;12.818;2024-02-21T14:40:45;15.80;1.00
1455;DHT22;721;48.168;12.818;2024-02-21T14:43:12;15.90;1.00
1455;DHT22;721;48.168;12.818;2024-02-21T14:45:39;15.90;1.00
1455;DHT22;721;48.168;12.818;2024-02-21T14:48:08;15.80;1.00
1455;DHT22;721;48.168;12.818;2024-02-21T14:50:35;16.20;1.00
1455;DHT22;721;48.168;12.818;2024-02-21T14:53:02;15.90;1.00
1455;DHT22;721;48.168;12.818;2024-02-21T14:55:28;15.80;1.00
1455;DHT22;721;48.168;12.818;2024-02-21T14:57:55;15.90;1.00
1455;DHT22;721;48.168;12.818;2024-02-21T15:00:22;15.40;1.00
1455;DHT22;721;48.168;12.818;2024-02-21T15:02:55;15.40;1.00
1455;DHT22;721;48.168;12.818;2024-02-21T15:05:24;15.10;1.00
1455;DHT22;721;48.168;12.818;2024-02-21T15:07:50;14.90;1.00
1455;DHT22;721;48.168;12.818;2024-02-21T15:10:17;14.90;1.00
1455;DHT22;721;48.168;12.818;2024-02-21T15:12:44;15.30;1.00
1455;DHT22;721;48.168;12.818;2024-02-21T15:15:11;14.90;1.00
1455;DHT22;721;48.168;12.818;2024-02-21T15:17:38;14.80;1.00
1455;DHT22;721;48.168;12.818;2024-02-21T15:20:06;14.40;1.00
1455;DHT22;721;48.168;12.818;2024-02-21T15:22:35;14.20;1.00
1455;DHT22;721;48.168;12.818;2024-02-21T15:25:03;14.20;1.00
1455;DHT22;721;48.168;12.818;2024-02-21T15:27:31;14.20;1.00
1455;DHT22;721;48.168;12.818;2024-02-21T15:29:58;14.30;1.00
1455;DHT22;721;48.168;12.818;2024-02-21T15:32:28;14.20;1.00
1455;DHT22;721;48.168;12.818;2024-02-21T15:34:55;14.20;1.00
1455;DHT22;721;48.168;12.818;2024-02-21T15:37:22;14.40;1.00
1455;DHT22;721;48.168;12.818;2024-02-21T15:40:16;14.10;1.00
1455;DHT22;721;48.168;12.818;2024-02-21T15:42:43;14.00;1.00
1455;DHT22;721;48.168;12.818;2024-02-21T15:45:11;14.00;1.00
1455;DHT22;721;48.168;12.818;2024-02-21T15:47:38;14.10;1.00
1455;DHT22;721;48.168;12.818;2024-02-21T15:50:06;14.20;1.00
1455;DHT22;721;48.168;12.818;2024-02-21T15:52:33;14.20;1.00
1455;DHT22;721;48.168;12.818;2024-02-21T15:55:00;14.20;1.00
1455;DHT22;721;48.168;12.818;2024-02-21T15:57:28;14.20;1.00
1455;DHT22;721;48.168;12.818;2024-02-21T15:59:57;14.10;1.00
1455;DHT22;721;48.168;12.818;2024-02-21T16:02:23;14.20;1.00
1455;DHT22;721;48.168;12.818;2024-02-21T16:04:50;14.20;1.00
1455;DHT22;721;48.168;12.818;2024-02-21T16:07:17;14.10;1.00
1455;DHT22;721;48.168;12.818;2024-02-21T16:09:44;14.10;1.00
1455;DHT22;721;48.168;12.818;2024-02-21T16:12:12;14.10;1.00
1455;DHT22;721;48.168;12.818;2024-02-21T16:14:41;13.90;1.00
1455;DHT22;721;48.168;12.818;2024-02-21T16:17:08;13.80;1.00
1455;DHT22;721;48.168;12.818;2024-02-21T16:19:35;13.90;1.00
1455;DHT22;721;48.168;12.818;2024-02-21T16:22:02;13.90;1.00
1455;DHT22;721;48.168;12.818;2024-02-21T16:24:30;13.90;1.00